Latest Weather Observations for Batchelor

IDD60901

Issued at 8:21 pm CST Sunday 1 March 2015 (issued every 10 minutes, with the page automatically refreshed every 10 minutes)

About weather observations | Map of Darwin area stations | Latest observations for Darwin area | Other Formats
Station Details ID: 014272 Name: BATCHELOR AIRPORT Lat: -13.05 Lon: 131.03 Height: 104.0 m
Data from the previous 72 hours. | See also: Recent months at Batchelor
Date/Time
CST
Tmp

°C
App
Tmp
°C
Dew
Point
°C
Rel
Hum
%
Delta-T

°C
Wind Press
QNH
hPa
Press
MSL
hPa
Rain
since
9 am
mm
Dir
 
Spd
km/h
Gust
km/h
Spd
kts
Gust
kts
01/08:00pm 26.5 30.5 22.8 80 2.5 WSW 6 9 3 5 1005.9 1005.2 0.0
01/07:30pm 26.9 30.4 22.9 79 2.7 WSW 9 17 5 9 1005.7 1005.0 0.0
01/07:00pm 27.3 31.5 23.5 80 2.6 WSW 7 11 4 6 1004.8 1004.0 0.0
01/06:30pm 27.9 31.5 23.1 75 3.3 WSW 9 19 5 10 1005.3 1004.5 0.0
01/06:00pm 28.6 31.8 23.1 72 3.8 WSW 11 19 6 10 1004.9 1004.1 0.0
01/05:30pm 29.1 32.5 24.0 74 3.6 W 13 19 7 10 1004.3 1003.5 0.0
01/05:00pm 31.4 35.0 24.3 66 5.0 WNW 13 20 7 11 1003.8 1003.0 0.0
01/04:30pm 30.6 33.1 23.8 67 4.7 WNW 17 26 9 14 1004.1 1003.3 0.0
01/04:00pm 30.6 32.6 24.0 68 4.6 WNW 20 32 11 17 1003.5 1002.7 0.0
01/03:30pm 31.6 34.3 23.4 61 5.7 WNW 15 32 8 17 1003.9 1003.1 0.0
01/03:00pm 34.0 38.7 23.4 54 7.4 NW 4 13 2 7 1003.7 1002.9 0.0
01/02:30pm 34.3 38.6 23.3 52 7.7 W 6 11 3 6 1004.3 1003.5 0.0
01/02:00pm 33.4 38.1 23.4 55 7.0 W 4 7 2 4 1004.8 1004.0 0.0
01/01:30pm 33.4 37.8 23.4 55 7.0 W 6 11 3 6 1005.7 1005.0 0.0
01/01:00pm 33.3 37.4 23.0 54 7.1 W 6 11 3 6 1006.2 1005.5 0.0
01/12:30pm 32.9 37.1 23.5 57 6.6 NW 7 15 4 8 1006.8 1006.1 0.0
01/12:00pm 32.3 36.4 23.3 59 6.3 W 7 11 4 6 1007.3 1006.6 0.0
01/11:30am 32.4 36.8 24.4 62 5.6 WNW 9 15 5 8 1007.4 1006.7 0.0
01/11:00am 31.5 35.9 24.4 66 5.0 WNW 9 15 5 8 1007.8 1007.1 0.0
01/10:30am 31.2 35.4 24.1 66 5.0 W 9 13 5 7 1007.8 1007.1 0.0
01/10:00am 30.5 35.6 24.9 72 3.9 SW 7 15 4 8 1007.9 1007.2 0.0
01/09:30am 29.4 34.7 25.2 78 3.0 W 7 13 4 7 1007.9 1007.2 0.0
01/09:00am 28.9 34.4 25.3 81 2.5 WSW 6 15 3 8 1008.1 1007.4 0.2
01/08:30am 27.6 33.2 25.4 88 1.6 WSW 6 11 3 6 1008.0 1007.3 0.2
01/08:00am 26.7 32.7 25.5 93 0.8 WSW 4 6 2 3 1007.5 1006.8 0.2
01/07:30am 26.2 32.6 25.5 96 0.5 W 2 6 1 3 1007.2 1006.5 0.2
01/07:00am 25.6 31.2 24.9 96 0.5 NW 4 6 2 3 1006.7 1006.0 0.2
01/06:30am 25.8 31.6 25.1 96 0.5 NW 4 6 2 3 1006.3 1005.6 0.2
01/06:00am 25.7 31.3 24.8 95 0.6 W 4 6 2 3 1005.9 1005.1 0.2
01/05:30am 25.9 31.6 25.0 95 0.6 W 4 4 2 2 1005.7 1004.9 0.2
01/05:00am 26.0 31.4 25.1 95 0.6 WNW 6 9 3 5 1005.3 1004.5 0.2
01/04:30am 26.1 31.5 25.2 95 0.6 W 6 9 3 5 1005.5 1004.7 0.2
01/04:00am 26.1 31.4 25.2 95 0.6 WNW 7 11 4 6 1005.5 1004.7 0.2
01/03:30am 26.1 31.5 25.1 94 0.7 W 6 7 3 4 1006.0 1005.2 0.2
01/03:00am 26.1 31.7 24.9 93 0.8 W 4 6 2 3 1006.1 1005.4 0.2
01/02:30am 26.3 31.6 24.9 92 1.0 W 6 11 3 6 1006.4 1005.7 0.2
01/02:00am 26.3 31.4 24.7 91 1.1 WNW 6 9 3 5 1006.5 1005.8 0.2
01/01:30am 26.2 31.8 24.8 92 1.0 W 4 6 2 3 1006.8 1006.1 0.2
01/01:00am 26.3 31.8 24.7 91 1.1 W 4 6 2 3 1007.0 1006.3 0.2
01/12:30am 26.4 31.9 24.6 90 1.3 W 4 6 2 3 1007.4 1006.7 0.2
01/12:00am 26.4 32.0 24.8 91 1.1 W 4 6 2 3 1007.9 1007.2 0.2
 
Date/Time
CST
Tmp

°C
App
Tmp
°C
Dew
Point
°C
Rel
Hum
%
Delta-T

°C
Wind Press
QNH
hPa
Press
MSL
hPa
Rain
since
9 am
mm
Dir
 
Spd
km/h
Gust
km/h
Spd
kts
Gust
kts
28/11:30pm 26.5 31.8 24.9 91 1.1 W 6 9 3 5 1008.3 1007.6 0.2
28/11:00pm 26.6 31.9 25.0 91 1.1 W 6 7 3 4 1008.5 1007.8 0.2
28/10:30pm 26.8 31.9 25.0 90 1.3 W 7 11 4 6 1008.0 1007.3 0.2
28/10:00pm 26.8 32.4 24.8 89 1.4 WNW 4 6 2 3 1008.1 1007.4 0.2
28/09:30pm 27.0 32.6 24.8 88 1.5 W 4 7 2 4 1008.0 1007.3 0.2
28/09:00pm 27.0 32.6 24.8 88 1.5 WNW 4 4 2 2 1007.3 1006.6 0.2
28/08:30pm 27.2 33.1 24.7 86 1.7 W 2 4 1 2 1006.2 1005.5 0.2
28/08:00pm 27.6 32.5 24.4 83 2.2 W 6 9 3 5 1005.7 1004.9 0.2
28/07:30pm 27.9 32.6 23.9 79 2.8 WNW 6 9 3 5 1005.3 1004.5 0.2
28/07:00pm 28.3 32.5 23.4 75 3.4 WNW 7 13 4 7 1005.4 1004.6 0.2
28/06:30pm 29.1 32.3 23.1 70 4.1 WNW 11 15 6 8 1005.2 1004.4 0.2
28/06:00pm 29.8 32.5 22.8 66 4.8 WNW 13 22 7 12 1005.1 1004.3 0.2
28/05:30pm 29.4 32.3 22.4 66 4.8 W 11 20 6 11 1004.5 1003.7 0.2
28/05:00pm 29.5 31.4 22.7 67 4.6 W 17 28 9 15 1005.4 1004.6 0.2
28/04:30pm 30.0 33.5 22.9 65 4.9 WSW 9 15 5 8 1005.1 1004.3 0.2
28/04:00pm 30.5 34.4 24.9 72 3.9 W 13 19 7 10 1005.1 1004.3 0.2
28/03:30pm 31.3 35.8 25.2 70 4.3 W 11 19 6 10 1005.1 1004.3 0.2
28/03:00pm 32.8 36.9 23.2 57 6.7 W 7 13 4 7 1005.1 1004.3 0.2
28/02:30pm 32.4 36.3 23.6 59 6.1 W 9 13 5 7 1005.9 1005.1 0.2
28/02:00pm 32.1 36.4 24.2 63 5.5 WSW 9 15 5 8 1006.3 1005.6 0.2
28/01:30pm 31.6 35.9 24.2 65 5.2 WSW 9 17 5 9 1006.8 1006.1 0.2
28/01:00pm 30.8 35.2 24.4 68 4.5 W 9 13 5 7 1007.2 1006.5 0.2
28/12:30pm 30.5 34.2 23.9 68 4.6 WSW 11 17 6 9 1007.4 1006.7 0.2
28/12:00pm 30.6 34.4 24.0 68 4.6 WSW 11 17 6 9 1007.7 1007.0 0.2
28/11:30am 30.6 35.2 24.7 71 4.2 WSW 9 17 5 9 1007.7 1007.0 0.2
28/11:00am 29.3 33.1 24.0 73 3.7 W 11 19 6 10 1008.1 1007.4 0.2
28/10:30am 29.5 33.6 24.6 75 3.4 W 11 17 6 9 1008.4 1007.7 0.2
28/10:00am 28.5 32.8 24.3 78 2.9 S 9 17 5 9 1008.1 1007.4 0.0
28/09:30am 26.9 31.2 23.6 82 2.3 SSE 7 11 4 6 1007.9 1007.2 0.0
28/09:00am 25.5 29.9 23.4 88 1.4 SSE 6 7 3 4 1007.9 1007.2 25.2
28/08:30am 24.6 29.3 23.4 93 0.8 SSW 4 7 2 4 1007.9 1007.2 25.2
28/08:00am 23.8 27.7 22.6 93 0.8 WSW 6 7 3 4 1007.7 1007.0 25.2
28/07:30am 23.3 26.8 21.9 92 0.9 WSW 6 9 3 5 1007.8 1007.1 25.2
28/07:00am 23.4 26.3 21.8 91 1.1 WNW 9 13 5 7 1007.5 1006.8 25.2
28/06:30am 23.5 24.3 21.4 88 1.4 WNW 19 28 10 15 1007.5 1006.8 25.2
28/06:00am 25.3 30.4 24.6 96 0.5 W 6 7 3 4 1006.9 1006.2 25.2
28/05:30am 25.2 31.0 24.5 96 0.5 WNW 2 6 1 3 1007.3 1006.6 25.2
28/05:00am 25.1 30.8 24.4 96 0.5 W 2 4 1 2 1007.2 1006.5 25.2
28/04:30am 25.0 30.9 24.1 95 0.6 CALM 0 0 0 0 1006.6 1005.9 25.2
28/04:00am 25.3 31.5 24.6 96 0.5 CALM 0 0 0 0 1006.8 1006.1 25.2
28/03:30am 25.4 30.8 24.5 95 0.6 W 4 4 2 2 1007.1 1006.4 25.2
28/03:00am 25.7 31.3 24.8 95 0.6 WSW 4 6 2 3 1007.7 1007.0 25.2
28/02:30am 25.6 30.9 24.9 96 0.5 NW 6 9 3 5 1007.4 1006.7 25.2
28/02:00am 25.7 30.7 24.8 95 0.6 WNW 7 11 4 6 1007.1 1006.4 25.2
28/01:30am 25.6 30.7 24.7 95 0.6 WNW 6 7 3 4 1007.3 1006.6 25.2
28/01:00am 25.6 30.7 24.7 95 0.6 WNW 6 7 3 4 1007.8 1007.1 25.2
28/12:30am 25.8 31.4 24.9 95 0.6 NNW 4 6 2 3 1007.8 1007.1 25.0
28/12:00am 25.8 31.8 24.9 95 0.6 NW 2 6 1 3 1008.2 1007.5 25.0
 
Date/Time
CST
Tmp

°C
App
Tmp
°C
Dew
Point
°C
Rel
Hum
%
Delta-T

°C
Wind Press
QNH
hPa
Press
MSL
hPa
Rain
since
9 am
mm
Dir
 
Spd
km/h
Gust
km/h
Spd
kts
Gust
kts
27/11:30pm 25.8 31.8 24.9 95 0.6 WNW 2 2 1 1 1009.0 1008.3 25.0
27/11:00pm 25.9 32.0 25.0 95 0.6 WNW 2 4 1 2 1009.4 1008.7 25.0
27/10:30pm 25.9 31.5 24.9 94 0.7 N 4 6 2 3 1009.5 1008.8 25.0
27/10:00pm 25.8 31.4 24.8 94 0.7 N 4 7 2 4 1009.3 1008.6 25.0
27/09:30pm 25.9 31.4 24.7 93 0.8 NNW 4 4 2 2 1008.9 1008.2 24.8
27/09:00pm 25.9 31.3 24.5 92 1.0 N 4 6 2 3 1008.6 1007.9 24.8
27/08:30pm 25.8 30.7 24.4 92 1.0 NNW 6 9 3 5 1007.4 1006.7 24.8
27/08:00pm 25.9 30.8 24.7 93 0.8 NNW 7 13 4 7 1007.6 1006.9 24.8
27/07:30pm 25.9 30.8 24.7 93 0.8 NNW 7 9 4 5 1007.1 1006.4 24.8
27/07:00pm 25.9 30.7 24.5 92 1.0 NW 7 11 4 6 1006.2 1005.5 24.8
27/06:30pm 26.0 30.9 24.6 92 1.0 NW 7 11 4 6 1005.7 1004.9 24.8
27/06:00pm 26.0 30.9 24.4 91 1.1 NW 6 9 3 5 1005.6 1004.8 24.8
27/05:30pm 26.0 30.1 23.9 88 1.5 WNW 9 13 5 7 1005.1 1004.3 24.6
27/05:00pm 26.1 30.0 23.6 86 1.7 NW 9 13 5 7 1005.2 1004.4 24.4
27/04:30pm 27.0 31.3 23.7 82 2.3 W 7 13 4 7 1005.1 1004.3 24.4
27/04:00pm 27.4 31.7 24.3 83 2.2 WNW 9 15 5 8 1005.2 1004.4 24.4
27/03:30pm 26.4 29.9 24.2 88 1.5 WNW 13 22 7 12 1005.3 1004.5 24.4
27/03:00pm 25.1 29.4 24.2 95 0.6 NW 9 15 5 8 1005.2 1004.4 24.4
27/02:30pm 23.6 26.3 22.2 92 0.9 NW 11 20 6 11 1006.3 1005.6 20.6
27/02:00pm 25.9 28.3 22.2 80 2.5 W 13 24 7 13 1006.4 1005.7 1.0
27/01:56pm 26.6 29.5 23.1 81 2.4 WNW 13 28 7 15 1006.3 1005.6 1.0
27/01:30pm 31.6 36.2 24.2 65 5.2 WNW 7 15 4 8 1005.9 1005.1 0.2
27/01:00pm 31.4 36.4 24.8 68 4.7 NW 7 15 4 8 1006.4 1005.7 0.2
27/12:30pm 31.0 35.4 24.4 68 4.6 WNW 9 13 5 7 1007.2 1006.5 0.2
27/12:00pm 31.1 35.4 24.2 66 4.8 WNW 9 17 5 9 1007.8 1007.1 0.2
27/11:30am 31.0 36.1 24.6 68 4.5 SW 6 11 3 6 1008.0 1007.3 0.2
27/11:00am 30.4 35.6 24.8 72 3.9 WSW 6 9 3 5 1008.2 1007.5 0.2
27/10:30am 30.3 35.9 25.4 75 3.5 W 6 11 3 6 1008.6 1007.9 0.2
27/10:00am 29.5 34.8 25.3 78 3.0 W 7 13 4 7 1008.6 1007.9 0.2
27/09:30am 29.0 34.4 25.4 81 2.5 WNW 7 11 4 6 1008.5 1007.8 0.2
27/09:00am 28.4 34.0 25.4 84 2.1 W 6 9 3 5 1008.3 1007.6 34.4
27/08:30am 27.3 33.2 25.3 89 1.4 WNW 4 6 2 3 1008.1 1007.4 34.4
27/08:00am 26.1 32.6 25.1 94 0.7 CALM 0 0 0 0 1007.7 1007.0 34.4
27/07:30am 25.1 31.1 24.2 95 0.6 CALM 0 0 0 0 1007.1 1006.4 34.4
27/07:00am 24.9 30.7 24.0 95 0.6 CALM 0 0 0 0 1006.8 1006.1 34.4
27/06:30am 25.3 31.4 24.4 95 0.6 CALM 0 0 0 0 1006.6 1005.9 34.4
27/06:00am 25.3 31.4 24.4 95 0.6 CALM 0 2 0 1 1006.5 1005.8 34.4
27/05:30am 25.3 31.0 24.4 95 0.6 SW 2 4 1 2 1006.5 1005.8 34.4
27/05:00am 25.3 30.8 24.6 96 0.5 WSW 4 6 2 3 1006.4 1005.7 34.4
27/04:30am 25.3 31.1 24.6 96 0.5 NNW 2 4 1 2 1006.3 1005.6 34.4
27/04:00am 25.3 31.0 24.4 95 0.6 NNW 2 4 1 2 1006.3 1005.6 34.4
27/03:30am 25.4 31.2 24.5 95 0.6 NNW 2 6 1 3 1006.6 1005.9 34.4
27/03:00am 25.4 31.5 24.5 95 0.6 CALM 0 6 0 3 1006.5 1005.8 34.4
27/02:30am 25.5 31.0 24.6 95 0.6 NNE 4 6 2 3 1007.1 1006.4 34.4
27/02:00am 25.5 31.3 24.6 95 0.6 NNW 2 4 1 2 1007.7 1007.0 34.4
27/01:30am 25.6 31.1 24.7 95 0.6 N 4 6 2 3 1008.0 1007.3 34.2
27/01:00am 25.7 31.3 24.8 95 0.6 NW 4 4 2 2 1008.2 1007.5 34.2
27/12:30am 25.8 31.6 25.1 96 0.5 NW 4 6 2 3 1008.7 1008.0 34.2
27/12:00am 25.6 30.7 24.7 95 0.6 NNW 6 7 3 4 1008.9 1008.2 34.2
 
Date/Time
CST
Tmp

°C
App
Tmp
°C
Dew
Point
°C
Rel
Hum
%
Delta-T

°C
Wind Press
QNH
hPa
Press
MSL
hPa
Rain
since
9 am
mm
Dir
 
Spd
km/h
Gust
km/h
Spd
kts
Gust
kts
26/11:30pm 25.4 31.2 24.5 95 0.6 WNW 2 4 1 2 1008.7 1008.0 34.2
26/11:00pm 25.5 31.1 24.8 96 0.5 WSW 4 6 2 3 1008.9 1008.2 34.2
26/10:30pm 25.3 31.1 24.6 96 0.5 WSW 2 4 1 2 1009.2 1008.5 34.2
26/10:00pm 24.9 30.1 24.2 96 0.5 WSW 4 6 2 3 1008.7 1008.0 34.2
26/09:30pm 24.7 30.5 24.0 96 0.5 CALM 0 2 0 1 1007.7 1007.0 34.2
26/09:00pm 24.3 29.5 23.6 96 0.5 N 2 6 1 3 1007.4 1006.7 34.2
26/08:30pm 23.9 29.3 23.2 96 0.5 CALM 0 0 0 0 1007.0 1006.3 34.2

Latest Capital City Observations: Canberra | Sydney | Melbourne | Brisbane | Adelaide | Perth | Hobart | Darwin

Other Formats:

Comma delimited format used in spreadsheet applications
http://www.bom.gov.au/fwo/IDD60901/IDD60901.94125.axf

JavaScript Object Notation format (JSON) in row-major order
http://www.bom.gov.au/fwo/IDD60901/IDD60901.94125.json